Royalton, MN (56373)

4:23 PM CDT on June 21, 2018 (GMT -0500)
15275 barley rd nw | | Change Station
Active Advisory: Flood Warning

Elev 961 ft 45.79 °N, 94.31 °W | Updated 2 minutes ago

Clear
Clear
81.5 °F
Feels Like 83 °F
N
2
Wind Variable Wind from NW
Gusts 2.0 mph

Today
High -- | Low -- °F
--% Chance of Precip.
Yesterday
High -- | Low -- °F
Precip. -- in
Pressure 29.93 in
Visibility 10.0 miles
Clouds Clear
Heat Index 83 °F
Dew Point 65 °F
Humidity 58%
Rainfall 1.02 in
Snow Depth Not available.
5:27 AM 9:10 PM
Waxing Gibbous, 65% visible
METAR KLXL 212115Z AUTO 05003KT 10SM CLR 24/13 A2993 RMK AO2
Pressure 29.93 in
Visibility 10.0 miles
Clouds Clear
Heat Index 83 °F
Dew Point 65 °F
Humidity 58%
Rainfall 1.02 in
Snow Depth Not available.
5:27 AM 9:10 PM
Waxing Gibbous, 65% visible
METAR KLXL 212115Z AUTO 05003KT 10SM CLR 24/13 A2993 RMK AO2

Get Your Daily Forecast Email!

Thanks for signing up!

Be on the lookout for a verification email in your inbox.

You'll start receiving severe weather alerts in your inbox..

×

10-Day Weather Forecast

Almanac

Astronomy

Jun. 21, 2018 Rise Set
Actual Time
Civil Twilight
Nautical Twilight
Astronomical Twilight
Moon
Length of Visible Light
Length of Day
Tomorrow will be .
, % of the Moon is Illuminated

Today's Extremes

State Highs State Lows

Community

WunderPhotos

Category 6

Welcome to Category 6. This is the collective home for Weather Underground's featured writeups by Dr. Jeff Masters (right), Bob Henson (left), Chris Burt, and other regular contributors.

Nearby

Air Quality

  Air Quality AQ Index Pollutant
Not available.

Snow Depth

Station Depth Elevation

Earthquake Activity

City Distance Mag. Time & Date
Minimum magnitude displayed is 2.5.

Coastal Water Temperatures

Place Temperature

Stations

Nearby Weather Stations

Station Location Temp. Windchill Dew Point Humidity Wind Precip. Elev Updated Type
                   

Watches & Warnings

Flood Warning
Issued: 10:41 AM CDT Jun. 21, 2018 – National Weather Service

The Flood Warning continues for
the Mississippi River near Fort Ripley.
* At 9:30 am Thursday the stage was 10.2 feet.
* Flood stage is 10.0 feet.
* Minor flooding is occurring and minor flooding is forecast.
* Forecast... the river will continue to fall to below flood stage by
Saturday early afternoon.
* At 10.0 feet... flooding of low lying areas adjacent the river is
expected.
This crest compares to a previous crest of 10.3 feet on may 22 2015.




Lat... Lon 4644 9420 4630 9420 4617 9423 4616 9440
      4626 9442


Wl